Atkinson, North Carolina
Current Conditions -  °F | °C
As of 7:53 PM on Wednesday 26 Nov 2014 (Local Time) from KILM Reporting Station
Clear Clear  
Wind Chill:   Ceiling: Unl
Heat Index:   Visibility: 10mi
Dew Point:   Wind: 9mph
Humidity: 83%   Direction: 290°WNW
Pressure: 30.08"   Gusts: NA
Location:  34.53°N, 78.17°W
Report Text: KILM 270053Z 29008KT 10SM CLR 08/06 A3008 RMK AO2 SLP185 T00830056
Loading
Personal Weather Stations






























Interactive Weather Map New forecast layout! Learn more

10-Day Weather Forecast

Advertisements
Track Severe Weather on mobile